Dades meteomassalio
Diari Summary for Marc 5, 2018 Units:  Metric    English   Both
« Previous Day
Next Day »
Diari Semanal Mensual Anual Personalitzat
  Maxima: Minima: Mijana:
Temperatura: -17.8 °C -16.8 °C -13.3 °C
Rosada: -17.8 °C -17.8 °C -15.2 °C
Humitat: Humidity % 48 % 80 %
Velocitat del vent: 0 km/h 0 km/h 15 km/h
Racha vent: 0 km/h - -
Vent:- - West
Pressio: 0 hPa 33602.7 hPa -
Pluja: 226.06 mm    
Historical Graphs
 
 
Tabular Data for Marc 5, 2018
Time Temperature Dew Point Pressure Wind Wind Speed Wind Gust Humidity Rainfall Rate (Hourly) solar Conditions
-17.8 °C -17.8 °C 0 hPa Calm     Humidity % 0 mm SolarRadiationWatts/m^2 W/m2 Conditions
00:01 -15.9 °C -17 °C 33890.5 hPa Calm     87 % 0 mm 0.0 W/m2 RA
00:06 -15.9 °C -17 °C 33890.5 hPa Calm     87 % 0 mm 0.0 W/m2 CLR
00:11 -15.9 °C -17 °C 33880.3 hPa Calm     87 % 0 mm 0.0 W/m2 CLR
00:16 -15.9 °C -17 °C 33880.3 hPa Calm     87 % 0 mm 0.0 W/m2 CLR
00:21 -15.9 °C -16.9 °C 33880.3 hPa Calm     88 % 0 mm 0.0 W/m2 CLR
00:26 -15.6 °C -16.6 °C 33890.5 hPa Calm     88 % 0 mm 0.0 W/m2 CLR
00:31 -15.9 °C -16.9 °C 33880.3 hPa Calm     88 % 0 mm 0.0 W/m2 CLR
00:36 -15.9 °C -16.9 °C 33890.5 hPa Calm     88 % 0 mm 0.0 W/m2 CLR
00:41 -16.2 °C -17.1 °C 33890.5 hPa Calm     89 % 0 mm 0.0 W/m2 CLR
00:46 -16.2 °C -17.1 °C 33890.5 hPa Calm     89 % 0 mm 0.0 W/m2 CLR
00:51 -16.2 °C -17.1 °C 33890.5 hPa Calm     89 % 0 mm 0.0 W/m2 CLR
00:56 -16.2 °C -17.1 °C 33890.5 hPa Calm     89 % 0 mm 0.0 W/m2 CLR
01:01 -16.2 °C -17.2 °C 33890.5 hPa Calm     88 % 0 mm 0.0 W/m2 CLR
01:06 -16.2 °C -17.1 °C 33890.5 hPa Calm     89 % 0 mm 0.0 W/m2 CLR
01:11 -16.2 °C -17.1 °C 33880.3 hPa Calm     89 % 0 mm 0.0 W/m2 CLR
01:16 -16.6 °C -17.4 °C 33880.3 hPa Calm     89 % 0 mm 0.0 W/m2 CLR
01:21 -16.6 °C -17.4 °C 33880.3 hPa Calm     89 % 0 mm 0.0 W/m2 CLR
01:26 -16.6 °C -17.4 °C 33866.8 hPa Calm     89 % 0 mm 0.0 W/m2 CLR
01:31 -16.6 °C -17.4 °C 33866.8 hPa Calm     89 % 0 mm 0.0 W/m2 CLR
01:36 -16.6 °C -17.4 °C 33856.6 hPa Calm     89 % 0 mm 0.0 W/m2 CLR
01:41 -16.8 °C -17.7 °C 33856.6 hPa Calm     89 % 0 mm 0.0 W/m2 CLR
01:46 -16.8 °C -17.6 °C 33843.1 hPa Calm     91 % 0 mm 0.0 W/m2 CLR
01:51 -16.8 °C -17.7 °C 33843.1 hPa Calm     90 % 0 mm 0.0 W/m2 CLR
01:56 -16.8 °C -17.7 °C 33843.1 hPa Calm     90 % 0 mm 0.0 W/m2 CLR
02:01 -16.8 °C -17.7 °C 33843.1 hPa Calm     90 % 0 mm 0.0 W/m2 CLR
02:06 -16.8 °C -17.7 °C 33832.9 hPa Calm     89 % 0 mm 0.0 W/m2 CLR
02:11 -16.8 °C -17.8 °C 33832.9 hPa Calm     88 % 0 mm 0.0 W/m2 CLR
02:16 -16.8 °C -17.8 °C 33843.1 hPa Calm     88 % 0 mm 0.0 W/m2 CLR
02:21 -16.8 °C -17.8 °C 33843.1 hPa Calm     88 % 0 mm 0.0 W/m2 CLR
02:26 -16.8 °C -17.7 °C 33843.1 hPa Calm     89 % 0 mm 0.0 W/m2 CLR
02:31 -16.8 °C -17.8 °C 33843.1 hPa Calm     88 % 0 mm 0.0 W/m2 CLR
02:36 -16.8 °C -17.8 °C 33832.9 hPa Calm     88 % 0 mm 0.0 W/m2 CLR
02:41 -16.8 °C -17.8 °C 33832.9 hPa Calm     88 % 0 mm 0.0 W/m2 CLR
02:46 -16.8 °C -17.8 °C 33822.8 hPa Calm     88 % 0 mm 0.0 W/m2 CLR
02:51 -16.8 °C -17.7 °C 33822.8 hPa Calm     89 % 0 mm 0.0 W/m2 CLR
02:56 -16.8 °C -17.7 °C 33822.8 hPa Calm     89 % 0 mm 0.0 W/m2 CLR
03:01 -16.8 °C -17.7 °C 33822.8 hPa Calm     90 % 0 mm 0.0 W/m2 CLR
03:06 -16.6 °C -17.3 °C 33809.2 hPa Calm     90 % 0 mm 0.0 W/m2 CLR
03:11 -16.6 °C -17.3 °C 33809.2 hPa Calm     90 % 0 mm 0.0 W/m2 CLR
03:16 -16.6 °C -17.3 °C 33809.2 hPa Calm     90 % 0 mm 0.0 W/m2 CLR
03:21 -16.6 °C -17.4 °C 33809.2 hPa Calm     89 % 0 mm 0.0 W/m2 CLR
03:26 -16.6 °C -17.4 °C 33799.1 hPa Calm     89 % 0 mm 0.0 W/m2 CLR
03:31 -16.6 °C -17.4 °C 33799.1 hPa Calm     89 % 0 mm 0.0 W/m2 CLR
03:36 -16.6 °C -17.6 °C 33799.1 hPa Calm     88 % 0 mm 0.0 W/m2 CLR
03:41 -16.6 °C -17.6 °C 33788.9 hPa Calm     87 % 0 mm 0.0 W/m2 CLR
03:46 -16.2 °C -17.4 °C 33788.9 hPa Calm     86 % 0 mm 0.0 W/m2 CLR
03:51 -16.2 °C -17.4 °C 33788.9 hPa Calm     86 % 0 mm 0.0 W/m2 CLR
03:56 -16.2 °C -17.3 °C 33788.9 hPa Calm     87 % 0 mm 0.0 W/m2 CLR
04:01 -16.2 °C -17.2 °C 33788.9 hPa Calm     88 % 0 mm 0.0 W/m2 CLR
04:06 -16.2 °C -17.2 °C 33788.9 hPa Calm     88 % 0 mm 0.0 W/m2 CLR
04:11 -16.2 °C -17.2 °C 33775.4 hPa Calm     88 % 0 mm 0.0 W/m2 CLR
04:16 -16.2 °C -17.2 °C 33775.4 hPa Calm     88 % 0 mm 0.0 W/m2 CLR
04:21 -15.9 °C -16.9 °C 33765.2 hPa Calm     88 % 0 mm 0.0 W/m2 CLR
04:26 -15.9 °C -16.9 °C 33765.2 hPa Calm     88 % 0 mm 0.0 W/m2 CLR
04:31 -15.9 °C -16.8 °C 33751.6 hPa Calm     89 % 0 mm 0.0 W/m2 CLR
04:36 -15.9 °C -16.9 °C 33751.6 hPa Calm     88 % 0 mm 0.0 W/m2 CLR
04:41 -15.9 °C -16.9 °C 33741.5 hPa Calm     88 % 0 mm 0.0 W/m2 CLR
04:46 -15.9 °C -16.9 °C 33741.5 hPa Calm     88 % 0 mm 0.0 W/m2 CLR
04:52 -15.9 °C -17 °C 33741.5 hPa Calm     87 % 0 mm 0.0 W/m2 CLR
04:57 -15.9 °C -17 °C 33741.5 hPa Calm     87 % 0 mm 0.0 W/m2 CLR
05:02 -15.9 °C -17 °C 33741.5 hPa Calm     87 % 0 mm 0.0 W/m2 CLR
05:07 -15.6 °C -16.7 °C 33741.5 hPa Calm     87 % 0 mm 0.0 W/m2 CLR
05:12 -15.6 °C -16.7 °C 33751.6 hPa Calm     87 % 0 mm 0.0 W/m2 CLR
05:17 -15.6 °C -16.7 °C 33751.6 hPa Calm     87 % 0 mm 0.0 W/m2 CLR
05:22 -15.6 °C -16.7 °C 33751.6 hPa Calm     87 % 0 mm 0.0 W/m2 CLR
05:27 -15.6 °C -16.6 °C 33751.6 hPa Calm     88 % 7.62 mm 0.0 W/m2 RA
05:32 -15.6 °C -16.6 °C 33751.6 hPa Calm     88 % 12.7 mm 0.0 W/m2 RA
05:37 -15.6 °C -16.7 °C 33741.5 hPa Calm     87 % 12.7 mm 0.0 W/m2 RA
05:42 -15.3 °C -16.3 °C 33731.3 hPa Calm     88 % 20.32 mm 0.0 W/m2 RA
05:47 -15.3 °C -16.4 °C 33731.3 hPa Calm     87 % 25.4 mm 0.0 W/m2 RA
05:52 -15.3 °C -16.3 °C 33731.3 hPa Calm     88 % 25.4 mm 0.0 W/m2
05:57 -15 °C -15.9 °C 33731.3 hPa Calm     89 % 25.4 mm 0.0 W/m2 CLR
06:02 -15 °C -16 °C 33731.3 hPa Calm     88 % 25.4 mm 0.0 W/m2 CLR
06:07 -15 °C -16 °C 33731.3 hPa Calm     88 % 33.02 mm 0.0 W/m2 RA
06:12 -15 °C -15.9 °C 33717.8 hPa Calm     89 % 33.02 mm 0.0 W/m2 CLR
06:17 -14.7 °C -15.6 °C 33731.3 hPa Calm     89 % 38.1 mm 0.0 W/m2 RA
06:20 -14.7 °C -15.6 °C 33731.3 hPa Calm     89 % 38.1 mm 0.0 W/m2
06:25 -14.7 °C -15.5 °C 33731.3 hPa Calm     90 % 38.1 mm 0.0 W/m2 RA
06:30 -14.7 °C -15.5 °C 33717.8 hPa Calm     90 % 38.1 mm 0.0 W/m2 RA
06:35 -14.7 °C -15.5 °C 33707.6 hPa Calm     90 % 38.1 mm 0.0 W/m2 RA
06:40 -14.7 °C -15.5 °C 33707.6 hPa Calm     90 % 33.02 mm 0.0 W/m2
06:45 -14.7 °C -15.5 °C 33707.6 hPa Calm     90 % 33.02 mm 0.0 W/m2 CLR
06:50 -14.7 °C -15.5 °C 33707.6 hPa Calm     90 % 25.4 mm 0.0 W/m2 CLR
06:55 -14.7 °C -15.5 °C 33707.6 hPa NE 12.9 km/h 12.9 km/h 90 % 25.4 mm 0.0 W/m2 CLR
07:00 -14.7 °C -15.5 °C 33694.1 hPa Calm     90 % 25.4 mm 0.0 W/m2 CLR
07:05 -14.7 °C -15.5 °C 33707.6 hPa Calm     90 % 20.32 mm 0.0 W/m2 CLR
07:10 -14.7 °C -15.5 °C 33694.1 hPa Calm     90 % 20.32 mm 0.0 W/m2 CLR
07:15 -14.7 °C -15.4 °C 33694.1 hPa Calm     91 % 12.7 mm 0.0 W/m2 CLR
07:20 -14.7 °C -15.4 °C 33694.1 hPa Calm     91 % 12.7 mm 0.0 W/m2 OVC
07:25 -15 °C -15.7 °C 33694.1 hPa Calm     91 % 12.7 mm 0.0 W/m2 OVC
07:30 -15 °C -15.7 °C 33707.6 hPa Calm     91 % 7.62 mm 0.0 W/m2 OVC
07:35 -15 °C -15.7 °C 33707.6 hPa Calm     91 % 7.62 mm 0.0 W/m2 RA
07:40 -15 °C -15.7 °C 33707.6 hPa Calm     91 % 7.62 mm 0.0 W/m2
07:45 -15 °C -15.7 °C 33707.6 hPa Calm     91 % 7.62 mm 5.0 W/m2 CLR
07:50 -15 °C -15.7 °C 33707.6 hPa Calm     91 % 7.62 mm 11.0 W/m2 BKN
07:55 -14.7 °C -15.4 °C 33707.6 hPa Calm     91 % 7.62 mm 19.0 W/m2 BKN
08:00 -14.7 °C -15.4 °C 33707.6 hPa Calm     91 % 7.62 mm 21.0 W/m2 BKN
08:05 -14.7 °C -15.4 °C 33707.6 hPa Calm     92 % 7.62 mm 32.0 W/m2 BKN
08:10 -14.7 °C -15.4 °C 33707.6 hPa Calm     92 % 7.62 mm 33.0 W/m2 BKN
08:15 -14.7 °C -15.4 °C 33707.6 hPa Calm     92 % 7.62 mm 46.0 W/m2 SCT
08:20 -14.7 °C -15.4 °C 33707.6 hPa Calm     92 % 7.62 mm 56.0 W/m2 SCT
08:25 -14.7 °C -15.4 °C 33707.6 hPa Calm     92 % 7.62 mm 56.0 W/m2 SCT
08:30 -14.4 °C -15.1 °C 33717.8 hPa Calm     92 % 7.62 mm 58.0 W/m2 SCT
08:35 -14.4 °C -15.1 °C 33717.8 hPa Calm     92 % 0 mm 58.0 W/m2 SCT
08:40 -14.4 °C -15.1 °C 33717.8 hPa Calm     92 % 0 mm 62.0 W/m2 SCT
08:45 -14.4 °C -15.1 °C 33717.8 hPa Calm     92 % 0 mm 70.0 W/m2 SCT
08:50 -14.4 °C -15.1 °C 33731.3 hPa Calm     92 % 0 mm 84.0 W/m2 FEW
08:55 -14.1 °C -14.8 °C 33731.3 hPa Calm     92 % 0 mm 81.0 W/m2 FEW
09:00 -14.1 °C -14.8 °C 33731.3 hPa Calm   0.5 km/h 92 % 0 mm 79.0 W/m2 FEW
09:05 -14.1 °C -14.8 °C 33731.3 hPa North 23.8 km/h 23.8 km/h 92 % 7.62 mm 84.0 W/m2 RA
09:10 -14.1 °C -14.8 °C 33731.3 hPa NNW 9 km/h 9 km/h 92 % 7.62 mm 111.0 W/m2 CLR
09:15 -14.1 °C -14.8 °C 33741.5 hPa NW 17.9 km/h 17.9 km/h 92 % 7.62 mm 97.0 W/m2 CLR
09:20 -13.8 °C -14.4 °C 33741.5 hPa NNW 12.9 km/h 12.9 km/h 92 % 12.7 mm 149.0 W/m2 RA
09:25 -13.4 °C -14.2 °C 33741.5 hPa NW 17.9 km/h 17.9 km/h 91 % 12.7 mm 111.0 W/m2 CLR
09:30 -13.4 °C -14.2 °C 33741.5 hPa NW 9 km/h 9 km/h 91 % 12.7 mm 127.0 W/m2 CLR
09:35 -13.4 °C -14.2 °C 33741.5 hPa WNW 15 km/h 15 km/h 91 % 12.7 mm 139.0 W/m2 CLR
09:41 -13.2 °C -14 °C 33741.5 hPa NW 15.6 km/h 15.6 km/h 90 % 12.7 mm 165.0 W/m2 CLR
09:46 -13.2 °C -14 °C 33741.5 hPa WNW 12.9 km/h 12.9 km/h 90 % 12.7 mm 199.0 W/m2 CLR
09:51 -13.2 °C -14 °C 33741.5 hPa WNW 9 km/h 9 km/h 90 % 12.7 mm 381.0 W/m2 CLR
09:56 -12.8 °C -13.7 °C 33741.5 hPa Calm     90 % 12.7 mm 292.0 W/m2 CLR
10:01 -12.8 °C -13.7 °C 33741.5 hPa Calm     90 % 12.7 mm 330.0 W/m2 CLR
10:06 -12.6 °C -13.5 °C 33741.5 hPa NNW 20.9 km/h 20.9 km/h 89 % 7.62 mm 241.0 W/m2 CLR
10:11 -12.2 °C -13.4 °C 33741.5 hPa NNW 26.9 km/h 26.9 km/h 86 % 7.62 mm 221.0 W/m2 CLR
10:16 -12.2 °C -13.6 °C 33731.3 hPa NW 29.8 km/h 29.8 km/h 85 % 7.62 mm 272.0 W/m2 CLR
10:21 -12.2 °C -13.8 °C 33731.3 hPa NNW 26.9 km/h 26.9 km/h 83 % 0 mm 295.0 W/m2 CLR
10:26 -11.9 °C -13.4 °C 33731.3 hPa NW 26.9 km/h 26.9 km/h 84 % 0 mm 346.0 W/m2 CLR
10:31 -11.6 °C -13.2 °C 33731.3 hPa NNW 41.7 km/h 41.7 km/h 82 % 0 mm 464.0 W/m2 CLR
10:36 -11.6 °C -13.7 °C 33731.3 hPa NW 44.7 km/h 44.7 km/h 78 % 0 mm 432.0 W/m2 CLR
10:41 -11.3 °C -13.6 °C 33731.3 hPa NW 50.7 km/h 50.7 km/h 76 % 0 mm 387.0 W/m2 CLR
10:46 -11.3 °C -13.4 °C 33731.3 hPa NNW 29.8 km/h 29.8 km/h 77 % 0 mm 327.0 W/m2 CLR
10:51 -11.6 °C -14 °C 33731.3 hPa NW 50.7 km/h 50.7 km/h 75 % 0 mm 285.0 W/m2 CLR
10:56 -11.6 °C -13.8 °C 33731.3 hPa NW 41.7 km/h 41.7 km/h 76 % 0 mm 290.0 W/m2 CLR
11:01 -11.6 °C -14 °C 33731.3 hPa NNW 38.8 km/h 38.8 km/h 75 % 0 mm 304.0 W/m2 CLR
11:06 -11.6 °C -14.3 °C 33731.3 hPa NNW 47.6 km/h 47.6 km/h 72 % 0 mm 313.0 W/m2 CLR
11:11 -11.6 °C -14.2 °C 33731.3 hPa NW 50.7 km/h 50.7 km/h 73 % 0 mm 304.0 W/m2 CLR
11:16 -11.3 °C -14 °C 33731.3 hPa North 54.4 km/h 54.4 km/h 72 % 0 mm 290.0 W/m2 CLR
11:21 -11.6 °C -14.7 °C 33717.8 hPa NW 41.7 km/h 41.7 km/h 69 % 0 mm 264.0 W/m2 CLR
11:26 -11.6 °C -14.7 °C 33731.3 hPa NW 50.7 km/h 50.7 km/h 69 % 0 mm 255.0 W/m2 CLR
11:31 -11.6 °C -14.7 °C 33717.8 hPa NW 41.7 km/h 41.7 km/h 69 % 0 mm 329.0 W/m2 CLR
11:36 -11.3 °C -14.2 °C 33717.8 hPa North 47.6 km/h 47.6 km/h 70 % 0 mm 468.0 W/m2 CLR
11:41 -11.3 °C -14.5 °C 33717.8 hPa NNW 29.8 km/h 29.8 km/h 68 % 0 mm 566.0 W/m2 CLR
11:46 -10.7 °C -14.1 °C 33717.8 hPa NW 44.7 km/h 44.7 km/h 66 % 0 mm 712.0 W/m2 CLR
11:51 -10.7 °C -14 °C 33717.8 hPa NNW 47.6 km/h 47.6 km/h 67 % 0 mm 726.0 W/m2 CLR
11:56 -10.4 °C -14.1 °C 33717.8 hPa WNW 47.6 km/h 47.6 km/h 64 % 0 mm 575.0 W/m2 CLR
12:01 -10.4 °C -13.9 °C 33707.6 hPa NNW 41.7 km/h 41.7 km/h 65 % 0 mm 729.0 W/m2 CLR
12:06 -10.1 °C -13.6 °C 33707.6 hPa North 41.7 km/h 41.7 km/h 66 % 0 mm 733.0 W/m2 CLR
12:11 -10.1 °C -13.9 °C 33707.6 hPa North 53.6 km/h 53.6 km/h 63 % 0 mm 712.0 W/m2 CLR
12:16 -10.1 °C -13.7 °C 33707.6 hPa North 33.6 km/h 33.6 km/h 65 % 0 mm 708.0 W/m2 CLR
12:21 -10.1 °C -13.7 °C 33694.1 hPa NNW 35.7 km/h 35.7 km/h 65 % 0 mm 629.0 W/m2 CLR
12:26 -10.1 °C -13.9 °C 33694.1 hPa North 41.7 km/h 41.7 km/h 63 % 0 mm 668.0 W/m2 CLR
12:31 -10.1 °C -14.3 °C 33694.1 hPa NNW 35.7 km/h 35.7 km/h 60 % 0 mm 719.0 W/m2 CLR
12:36 -9.8 °C -13.9 °C 33694.1 hPa NNW 41.7 km/h 41.7 km/h 61 % 0 mm 717.0 W/m2 CLR
12:41 -9.8 °C -13.6 °C 33683.9 hPa NNE 26.9 km/h 26.9 km/h 63 % 0 mm 717.0 W/m2 CLR
12:46 -9.8 °C -13.4 °C 33683.9 hPa North 32.8 km/h 32.8 km/h 65 % 0 mm 721.0 W/m2 CLR
12:51 -9.8 °C -13.9 °C 33683.9 hPa North 35.7 km/h 35.7 km/h 61 % 0 mm 731.0 W/m2 CLR
12:56 -9.4 °C -13.1 °C 33673.8 hPa North 38.8 km/h 38.8 km/h 65 % 0 mm 745.0 W/m2 CLR
13:01 -9.4 °C -13.8 °C 33673.8 hPa WNW 35.7 km/h 35.7 km/h 59 % 0 mm 819.0 W/m2 CLR
13:06 -9.4 °C -13.6 °C 33683.9 hPa North 32.8 km/h 32.8 km/h 61 % 0 mm 735.0 W/m2 CLR
13:11 -9.8 °C -13.9 °C 33673.8 hPa WNW 20.9 km/h 20.9 km/h 61 % 0 mm 735.0 W/m2 CLR
13:16 -9.8 °C -13.9 °C 33673.8 hPa North 35.7 km/h 35.7 km/h 61 % 0 mm 735.0 W/m2 CLR
13:21 -10.1 °C -14.4 °C 33673.8 hPa North 25.9 km/h 25.9 km/h 59 % 0 mm 195.0 W/m2 CLR
13:26 -10.4 °C -14.5 °C 33673.8 hPa NNW 23.8 km/h 23.8 km/h 61 % 0 mm 220.0 W/m2 CLR
13:31 -10.4 °C -14.6 °C 33673.8 hPa North 29.8 km/h 29.8 km/h 60 % 0 mm 234.0 W/m2 CLR
13:36 -10.1 °C -14.3 °C 33660.2 hPa NNW 26.9 km/h 26.9 km/h 60 % 0 mm 782.0 W/m2 CLR
13:41 -9.4 °C -13.8 °C 33660.2 hPa NNW 44.7 km/h 44.7 km/h 59 % 0 mm 814.0 W/m2 CLR
13:46 -9.1 °C -13.6 °C 33650.1 hPa North 26.9 km/h 26.9 km/h 59 % 0 mm 840.0 W/m2 CLR
13:51 -8.8 °C -13.8 °C 33650.1 hPa NW 44.7 km/h 44.7 km/h 55 % 0 mm 870.0 W/m2 CLR
13:56 -8.8 °C -14 °C 33650.1 hPa NNW 44.1 km/h 44.1 km/h 54 % 0 mm 895.0 W/m2 CLR
14:01 -8.8 °C -14.9 °C 33650.1 hPa West 38.8 km/h 38.8 km/h 48 % 0 mm 844.0 W/m2 CLR
14:06 -9.4 °C -14.3 °C 33650.1 hPa North 35.7 km/h 35.7 km/h 56 % 0 mm 304.0 W/m2 CLR
14:11 -9.4 °C -15.1 °C 33650.1 hPa North 29.8 km/h 29.8 km/h 51 % 0 mm 951.0 W/m2 CLR
14:16 -9.1 °C -14 °C 33639.9 hPa NNE 35.7 km/h 35.7 km/h 56 % 0 mm 867.0 W/m2 CLR
14:21 -9.4 °C -14.4 °C 33639.9 hPa ENE 35.7 km/h 35.7 km/h 55 % 0 mm 199.0 W/m2 CLR
14:26 -9.1 °C -14 °C 33639.9 hPa North 23.8 km/h 23.8 km/h 56 % 0 mm 708.0 W/m2 CLR
14:31 -9.1 °C -14.1 °C 33626.4 hPa Calm     55 % 0 mm 686.0 W/m2 CLR
14:36 -9.1 °C -14.1 °C 33626.4 hPa North 32.8 km/h 32.8 km/h 55 % 0 mm 679.0 W/m2 CLR
14:41 -9.1 °C -13.8 °C 33626.4 hPa Calm     57 % 0 mm 654.0 W/m2 CLR
14:46 -9.1 °C -14.4 °C 33616.2 hPa NNE 23.3 km/h 23.3 km/h 53 % 0 mm 649.0 W/m2 CLR
14:51 -9.4 °C -14.3 °C 33616.2 hPa North 32.8 km/h 32.8 km/h 56 % 0 mm 645.0 W/m2 CLR
14:56 -9.4 °C -14.4 °C 33616.2 hPa NE 29.8 km/h 29.8 km/h 55 % 0 mm 631.0 W/m2 CLR
15:01 -9.1 °C -14.1 °C 33602.7 hPa NNE 20.9 km/h 20.9 km/h 55 % 0 mm 622.0 W/m2 CLR
15:06 -9.4 °C -14.4 °C 33602.7 hPa NNE 26.9 km/h 26.9 km/h 55 % 0 mm 621.0 W/m2 CLR
15:11 -9.1 °C -14.3 °C 33602.7 hPa ENE 26.9 km/h 26.9 km/h 54 % 0 mm 599.0 W/m2 CLR
15:16 -9.1 °C -14.4 °C 33602.7 hPa ENE 20.9 km/h 20.9 km/h 53 % 0 mm 527.0 W/m2 CLR
15:21 -9.4 °C -14.7 °C 33602.7 hPa ENE 15.6 km/h 15.6 km/h 53 % 0 mm 497.0 W/m2 CLR
15:27 -9.8 °C -15 °C 33602.7 hPa ENE 3.1 km/h 3.1 km/h 53 % 0 mm 128.0 W/m2 CLR
15:32 -10.1 °C -15.2 °C 33602.7 hPa East 23.8 km/h 23.8 km/h 54 % 0 mm 244.0 W/m2 CLR
15:37 -9.8 °C -14.7 °C 33602.7 hPa East 10.3 km/h 10.3 km/h 55 % 0 mm 225.0 W/m2 CLR
15:42 -9.8 °C -14.9 °C 33616.2 hPa East 23.8 km/h 23.8 km/h 54 % 0 mm 148.0 W/m2 CLR
15:47 -10.1 °C -15.2 °C 33616.2 hPa East 6 km/h 6 km/h 54 % 0 mm 162.0 W/m2 CLR
15:52 -9.8 °C -14.7 °C 33616.2 hPa Calm     55 % 0 mm 142.0 W/m2 CLR
15:57 -10.1 °C -15 °C 33616.2 hPa Calm     55 % 0 mm 313.0 W/m2 CLR
16:02 -10.1 °C -15 °C 33602.7 hPa Calm     55 % 0 mm 227.0 W/m2 CLR
16:07 -10.1 °C -15 °C 33602.7 hPa Calm     55 % 0 mm 163.0 W/m2 CLR
16:12 -10.1 °C -14.9 °C 33602.7 hPa ENE 15 km/h 15 km/h 56 % 0 mm 149.0 W/m2 CLR
16:17 -10.1 °C -14.9 °C 33602.7 hPa ENE 20.8 km/h 20.8 km/h 56 % 0 mm 155.0 W/m2 CLR
16:22 -10.1 °C -14.9 °C 33602.7 hPa East 15 km/h 15 km/h 56 % 0 mm 176.0 W/m2 CLR
16:27 -10.1 °C -15 °C 33602.7 hPa Calm     55 % 0 mm 207.0 W/m2 CLR
16:32 -10.1 °C -15 °C 33602.7 hPa Calm     55 % 0 mm 199.0 W/m2 CLR
16:37 -10.1 °C -15.2 °C 33602.7 hPa Calm     54 % 0 mm 199.0 W/m2 CLR
16:42 -10.1 °C -15 °C 33602.7 hPa Calm     55 % 0 mm 141.0 W/m2 CLR
16:47 -10.1 °C -15.2 °C 33602.7 hPa Calm     54 % 0 mm 118.0 W/m2 CLR
16:52 -10.1 °C -15.2 °C 33602.7 hPa ESE 5.1 km/h   54 % 0 mm 98.0 W/m2 CLR
16:57 -10.1 °C -15 °C 33602.7 hPa Calm     55 % 0 mm 91.0 W/m2 CLR
17:02 -10.1 °C -15 °C 33602.7 hPa Calm     55 % 0 mm 70.0 W/m2 CLR
17:07 -10.4 °C -15.3 °C 33602.7 hPa Calm     55 % 0 mm 58.0 W/m2 FEW
17:12 -10.4 °C -15.2 °C 33602.7 hPa Calm     56 % 0 mm 46.0 W/m2 SCT
17:17 -10.4 °C -15.2 °C 33602.7 hPa Calm     56 % 0 mm 37.0 W/m2 SCT
17:22 -10.4 °C -15.2 °C 33602.7 hPa SW 17.9 km/h 17.9 km/h 56 % 0 mm 28.0 W/m2 BKN
17:27 -10.7 °C -15.1 °C 33616.2 hPa WSW 28.5 km/h 28.5 km/h 59 % 0 mm 18.0 W/m2 BKN
17:32 -11 °C -15.1 °C 33626.4 hPa WSW 29.8 km/h 29.8 km/h 61 % 0 mm 11.0 W/m2 BKN
17:37 -11 °C -14.9 °C 33626.4 hPa West 53.6 km/h 53.6 km/h 62 % 0 mm 5.0 W/m2 BKN
17:42 -11.6 °C -15 °C 33626.4 hPa WNW 44.7 km/h 44.7 km/h 66 % 0 mm 0.0 W/m2 BKN
17:47 -12.2 °C -14.8 °C 33639.9 hPa WNW 38.8 km/h 38.8 km/h 73 % 7.62 mm 0.0 W/m2 RA
17:52 -12.8 °C -15.1 °C 33639.9 hPa WNW 41.7 km/h 41.7 km/h 76 % 20.32 mm 0.0 W/m2 RA
17:57 -12.8 °C -14.7 °C 33639.9 hPa WNW 38.8 km/h 38.8 km/h 80 % 38.1 mm 0.0 W/m2 RA
18:02 -13.2 °C -14.8 °C 33650.1 hPa NW 44.7 km/h 44.7 km/h 81 % 50.8 mm 0.0 W/m2 RA
18:07 -13.2 °C -14.8 °C 33650.1 hPa NNW 41.7 km/h 41.7 km/h 82 % 58.42 mm 0.0 W/m2 RA
18:12 -12.8 °C -14.3 °C 33650.1 hPa NW 54.4 km/h 54.4 km/h 83 % 71.12 mm 0.0 W/m2 RA
18:17 -12.8 °C -14.8 °C 33650.1 hPa ESE 36.2 km/h 36.2 km/h 79 % 91.44 mm 0.0 W/m2 RA
18:22 -12.6 °C -14.8 °C 33650.1 hPa ESE 29.8 km/h 29.8 km/h 76 % 104.14 mm 0.0 W/m2 RA
18:27 -12.6 °C -14.6 °C 33650.1 hPa ESE 23.8 km/h 23.8 km/h 78 % 104.14 mm 0.0 W/m2
18:32 -12.8 °C -14.7 °C 33650.1 hPa Calm     80 % 104.14 mm 0.0 W/m2 CLR
18:37 -13.2 °C -14.9 °C 33650.1 hPa Calm     80 % 104.14 mm 0.0 W/m2 OVC
18:42 -13.2 °C -14.7 °C 33660.2 hPa Calm     83 % 104.14 mm 0.0 W/m2 OVC
18:47 -13.2 °C -14.6 °C 33660.2 hPa Calm     84 % 96.52 mm 0.0 W/m2 OVC
18:52 -13.2 °C -14.5 °C 33660.2 hPa West 18.2 km/h 18.2 km/h 85 % 83.82 mm 0.0 W/m2 OVC
18:57 -13.2 °C -14.4 °C 33660.2 hPa WNW 17.9 km/h 17.9 km/h 86 % 63.5 mm 0.0 W/m2 OVC
19:02 -13.2 °C -14.3 °C 33673.8 hPa Calm     87 % 50.8 mm 0.0 W/m2 CLR
19:07 -13.2 °C -14.3 °C 33673.8 hPa Calm     87 % 45.72 mm 0.0 W/m2 CLR
19:12 -13.2 °C -14.3 °C 33673.8 hPa Calm     87 % 33.02 mm 0.0 W/m2 CLR
19:17 -13.2 °C -14.3 °C 33683.9 hPa Calm     87 % 12.7 mm 0.0 W/m2 CLR
19:22 -13.2 °C -14.3 °C 33694.1 hPa NNW 29.8 km/h 29.8 km/h 87 % 0 mm 0.0 W/m2 CLR
19:27 -13.2 °C -14.3 °C 33694.1 hPa NNW 23.8 km/h 23.8 km/h 87 % 0 mm 0.0 W/m2 CLR
19:32 -13.2 °C -14.3 °C 33694.1 hPa NW 23.8 km/h 23.8 km/h 87 % 7.62 mm 0.0 W/m2 RA
19:37 -13.2 °C -14.2 °C 33694.1 hPa NW 29.8 km/h 29.8 km/h 88 % 7.62 mm 0.0 W/m2 CLR
19:42 -13.2 °C -14.2 °C 33694.1 hPa NW 20.9 km/h 20.9 km/h 88 % 7.62 mm 0.0 W/m2 CLR
19:47 -13.2 °C -14.2 °C 33707.6 hPa NW 17.9 km/h 17.9 km/h 88 % 7.62 mm 0.0 W/m2 CLR
19:52 -13.2 °C -14.2 °C 33707.6 hPa WNW 26.9 km/h 26.9 km/h 88 % 7.62 mm 0.0 W/m2 CLR
19:57 -13.2 °C -14.3 °C 33707.6 hPa NW 20.9 km/h 20.9 km/h 87 % 7.62 mm 0.0 W/m2 CLR
20:02 -13.2 °C -14.4 °C 33707.6 hPa WNW 15 km/h 15 km/h 86 % 7.62 mm 0.0 W/m2 CLR
20:07 -13.2 °C -14.4 °C 33707.6 hPa WNW 20.9 km/h 20.9 km/h 86 % 7.62 mm 0.0 W/m2 CLR
20:12 -13.2 °C -14.4 °C 33707.6 hPa West 20.9 km/h 20.9 km/h 86 % 12.7 mm 0.0 W/m2 RA
20:17 -13.4 °C -14.7 °C 33707.6 hPa WNW 20.9 km/h 20.9 km/h 86 % 12.7 mm 0.0 W/m2 CLR
20:22 -13.4 °C -14.6 °C 33707.6 hPa WNW 26.9 km/h 26.9 km/h 87 % 12.7 mm 0.0 W/m2 CLR
20:27 -13.4 °C -14.6 °C 33717.8 hPa West 15 km/h 15 km/h 87 % 12.7 mm 0.0 W/m2 RA
20:32 -13.4 °C -14.6 °C 33717.8 hPa WNW 11.9 km/h 11.9 km/h 87 % 12.7 mm 0.0 W/m2
20:37 -13.4 °C -14.5 °C 33717.8 hPa WNW 20.9 km/h 20.9 km/h 88 % 12.7 mm 0.0 W/m2 RA
20:42 -13.4 °C -14.5 °C 33717.8 hPa Calm     88 % 12.7 mm 0.0 W/m2
20:47 -13.4 °C -14.4 °C 33717.8 hPa NW 15.6 km/h 15.6 km/h 89 % 12.7 mm 0.0 W/m2 CLR
20:52 -13.4 °C -14.4 °C 33731.3 hPa NW 20.9 km/h 20.9 km/h 89 % 12.7 mm 0.0 W/m2 CLR
20:57 -13.4 °C -14.4 °C 33731.3 hPa NW 9 km/h   89 % 20.32 mm 0.0 W/m2 RA
21:02 -13.4 °C -14.4 °C 33731.3 hPa NW 17.9 km/h 17.9 km/h 89 % 33.02 mm 0.0 W/m2 RA
21:07 -13.4 °C -14.4 °C 33731.3 hPa NW 20.9 km/h 20.9 km/h 89 % 38.1 mm 0.0 W/m2 RA
21:12 -13.4 °C -14.3 °C 33741.5 hPa NW 15 km/h 15 km/h 90 % 38.1 mm 0.0 W/m2 RA
21:17 -13.4 °C -14.3 °C 33741.5 hPa WNW 17.9 km/h 17.9 km/h 90 % 38.1 mm 0.0 W/m2 RA
21:22 -13.4 °C -14.3 °C 33741.5 hPa WNW 18.2 km/h 18.2 km/h 90 % 38.1 mm 0.0 W/m2 CLR
21:27 -13.4 °C -14.3 °C 33741.5 hPa NW 20.8 km/h 20.8 km/h 90 % 38.1 mm 0.0 W/m2 CLR
21:32 -13.4 °C -14.3 °C 33741.5 hPa NW 11.9 km/h 11.9 km/h 90 % 38.1 mm 0.0 W/m2 CLR
21:37 -13.4 °C -14.3 °C 33741.5 hPa Calm     90 % 38.1 mm 0.0 W/m2 RA
21:42 -13.4 °C -14.3 °C 33751.6 hPa Calm     90 % 38.1 mm 0.0 W/m2 CLR
21:47 -13.4 °C -14.3 °C 33751.6 hPa WNW 15 km/h 15 km/h 90 % 38.1 mm 0.0 W/m2 CLR
21:52 -13.4 °C -14.3 °C 33751.6 hPa Calm     90 % 38.1 mm 0.0 W/m2 CLR
21:57 -13.8 °C -14.6 °C 33751.6 hPa Calm     90 % 33.02 mm 0.0 W/m2 CLR
22:02 -13.8 °C -14.6 °C 33751.6 hPa Calm     90 % 20.32 mm 0.0 W/m2 CLR
22:07 -13.8 °C -14.6 °C 33751.6 hPa West 15 km/h 15 km/h 90 % 12.7 mm 0.0 W/m2 CLR
22:12 -13.8 °C -14.6 °C 33751.6 hPa NW 17.9 km/h 17.9 km/h 90 % 12.7 mm 0.0 W/m2 CLR
22:17 -13.8 °C -14.6 °C 33751.6 hPa WNW 26.9 km/h 26.9 km/h 90 % 7.62 mm 0.0 W/m2 CLR
22:22 -13.8 °C -14.7 °C 33751.6 hPa WNW 26.9 km/h 26.9 km/h 89 % 7.62 mm 0.0 W/m2 CLR
22:27 -13.8 °C -14.7 °C 33751.6 hPa NW 29.8 km/h 29.8 km/h 89 % 7.62 mm 0.0 W/m2 CLR
22:33 -13.8 °C -14.8 °C 33751.6 hPa NW 23.8 km/h 23.8 km/h 88 % 7.62 mm 0.0 W/m2 CLR
22:38 -13.8 °C -14.8 °C 33751.6 hPa NW 29.8 km/h 29.8 km/h 88 % 0 mm 0.0 W/m2 CLR
22:43 -13.8 °C -14.8 °C 33751.6 hPa WNW 29.8 km/h 29.8 km/h 88 % 0 mm 0.0 W/m2 CLR
22:48 -13.8 °C -14.8 °C 33751.6 hPa WNW 29.8 km/h 29.8 km/h 88 % 0 mm 0.0 W/m2 CLR
22:53 -13.8 °C -14.8 °C 33765.2 hPa WNW 29.8 km/h 29.8 km/h 88 % 0 mm 0.0 W/m2 CLR
22:58 -13.8 °C -14.8 °C 33765.2 hPa WNW 29.8 km/h 29.8 km/h 88 % 0 mm 0.0 W/m2 CLR
23:03 -13.8 °C -14.8 °C 33765.2 hPa WNW 41.7 km/h 41.7 km/h 88 % 0 mm 0.0 W/m2 CLR
23:08 -13.4 °C -14.5 °C 33765.2 hPa NW 35.7 km/h 35.7 km/h 88 % 0 mm 0.0 W/m2 CLR
23:13 -13.4 °C -14.6 °C 33775.4 hPa NW 29.8 km/h 29.8 km/h 87 % 0 mm 0.0 W/m2 CLR
23:18 -13.4 °C -14.6 °C 33775.4 hPa NW 29.8 km/h 29.8 km/h 87 % 0 mm 0.0 W/m2 CLR
23:23 -13.4 °C -14.6 °C 33775.4 hPa NW 32.8 km/h 32.8 km/h 87 % 0 mm 0.0 W/m2 CLR
23:28 -13.4 °C -14.6 °C 33788.9 hPa NW 38.8 km/h 38.8 km/h 87 % 0 mm 0.0 W/m2 CLR
23:33 -13.4 °C -14.5 °C 33788.9 hPa NW 41.7 km/h 41.7 km/h 88 % 0 mm 0.0 W/m2 CLR
23:38 -13.4 °C -14.5 °C 33788.9 hPa NW 29.8 km/h 29.8 km/h 88 % 0 mm 0.0 W/m2 CLR
23:43 -13.4 °C -14.5 °C 33788.9 hPa NW 33.6 km/h 33.6 km/h 88 % 0 mm 0.0 W/m2 CLR
23:48 -13.4 °C -14.5 °C 33788.9 hPa NW 44.7 km/h 44.7 km/h 88 % 0 mm 0.0 W/m2 CLR
23:53 -13.4 °C -14.5 °C 33788.9 hPa NNW 33.6 km/h 33.6 km/h 88 % 0 mm 0.0 W/m2 CLR
23:58 -13.4 °C -14.5 °C 33799.1 hPa NW 44.7 km/h 44.7 km/h 88 % 0 mm 0.0 W/m2 CLR
Lo Temps de Massalio
Compliments of Weather Underground - 1.25 mb